Impacts METAR Board
IDs:

KSAN - San Diego Intl Arpt, CA, US

Updated at: 2300 UTC 21 May 2022
Potential Impact None Slight Moderate High
Time 21/11Z 21/12Z 21/13Z 21/14Z 21/15Z 21/16Z 21/17Z 21/18Z 21/19Z 21/20Z 21/21Z 21/22Z 21/23Z
Temp60 60 59 60 60 60 61 63 64 64 65 64 63
Dewpt54 53 54 55 54 54 53 53 53 53 53 52 52
Altim29.88 29.89 29.90 29.93 29.94 29.96 29.97 29.98 29.99 29.99 29.99 30.00 29.99
VIS9 9 9 7 10 10 10 10 10 10 10 10 10
CIG42 42 43 12 40 20 40 26 42 44 43 41 40
CoverOVCOVCOVCOVCOVCOVCOVCOVCOVCBKNBKNBKNOVC
FltCatVFRVFRVFRMVFRVFRMVFRVFRMVFRVFRVFRVFRVFRVFR
WX--------------------------
WDir180170160190170180190210200200210200240
WSpd6 5 4 5 6 7 9 9 8 9 10 7 7
WGst-- -- -- -- -- -- 18 -- -- -- 18 18 --
Raw hourly METARs
KSAN 211051Z 18006KT 9SM FEW012 OVC042 16/12 A2988 RMK AO2 SLP118 T01560122 $
KSAN 211151Z 17005KT 9SM FEW012 OVC042 16/12 A2989 RMK AO2 SLP122 70001 T01560117 10161 20150 53003 $
KSAN 211251Z 16004KT 9SM FEW013 OVC043 15/12 A2990 RMK AO2 SLP124 T01500122 $
KSAN 211351Z 19005KT 7SM BKN012 OVC042 16/13 A2993 RMK AO2 SLP133 T01560128
KSAN 211451Z 17006KT 10SM SCT012 OVC040 16/12 A2994 RMK AO2 SLP138 T01560122 53017
KSAN 211551Z 18007KT 10SM SCT012 BKN020 OVC040 16/12 A2996 RMK AO2 SLP145 T01560122
KSAN 211651Z 19009G18KT 10SM FEW012 SCT020 OVC040 16/12 A2997 RMK AO2 SLP148 T01610117
KSAN 211758Z 21009KT 10SM BKN026 OVC041 17/12 A2998 RMK AO2 T01720117
KSAN 211851Z 20008KT 10SM SCT026 OVC042 18/12 A2999 RMK AO2 SLP155 T01780117
KSAN 211951Z 20009KT 10SM SCT028 BKN044 18/12 A2999 RMK AO2 SLP155 T01780117
KSAN 212051Z 21010G18KT 10SM FEW020 BKN043 18/12 A2999 RMK AO2 SLP156 T01830117 51005
KSAN 212151Z 20007G18KT 160V260 10SM FEW020 BKN041 18/11 A3000 RMK AO2 SLP158 T01780111
KSAN 212251Z 24007KT 10SM FEW020 OVC040 17/11 A2999 RMK AO2 SLP156 T01720111



Page loaded:  23:09 UTC  |   04:09 PM Pacific  |   05:09 PM Mountain  |   06:09 PM Central  |   07:09 PM Eastern

 

ADVISORIES

FORECASTS

FORECASTS

OBSERVATIONS

USER TOOLS

ABOUT US